sensor_id;sensor_type;location;lat;lon;timestamp;P1;durP1;ratioP1;P2;durP2;ratioP2
22064;SDS011;11197;53.110;8.468;2023-05-16T00:00:26;11.55;;;2.10;;
22064;SDS011;11197;53.110;8.468;2023-05-16T00:02:52;8.60;;;1.63;;
22064;SDS011;11197;53.110;8.468;2023-05-16T00:05:18;9.38;;;1.80;;
22064;SDS011;11197;53.110;8.468;2023-05-16T00:07:45;11.27;;;1.95;;
22064;SDS011;11197;53.110;8.468;2023-05-16T00:10:12;14.65;;;2.30;;
22064;SDS011;11197;53.110;8.468;2023-05-16T00:12:38;10.32;;;2.00;;
22064;SDS011;11197;53.110;8.468;2023-05-16T00:15:05;12.75;;;2.20;;
22064;SDS011;11197;53.110;8.468;2023-05-16T00:17:32;13.48;;;2.42;;
22064;SDS011;11197;53.110;8.468;2023-05-16T00:19:59;9.95;;;2.10;;
22064;SDS011;11197;53.110;8.468;2023-05-16T00:22:33;14.25;;;2.20;;
22064;SDS011;11197;53.110;8.468;2023-05-16T00:24:58;15.65;;;2.17;;
22064;SDS011;11197;53.110;8.468;2023-05-16T00:27:25;10.80;;;2.00;;
22064;SDS011;11197;53.110;8.468;2023-05-16T00:29:50;10.25;;;1.80;;
22064;SDS011;11197;53.110;8.468;2023-05-16T00:32:17;11.15;;;2.08;;
22064;SDS011;11197;53.110;8.468;2023-05-16T00:34:42;7.93;;;1.70;;
22064;SDS011;11197;53.110;8.468;2023-05-16T00:37:08;13.68;;;2.50;;
22064;SDS011;11197;53.110;8.468;2023-05-16T00:39:35;13.57;;;2.20;;
22064;SDS011;11197;53.110;8.468;2023-05-16T00:42:01;13.55;;;2.20;;
22064;SDS011;11197;53.110;8.468;2023-05-16T00:44:27;11.05;;;1.85;;
22064;SDS011;11197;53.110;8.468;2023-05-16T00:46:53;14.13;;;2.03;;
22064;SDS011;11197;53.110;8.468;2023-05-16T00:49:19;12.05;;;1.90;;
22064;SDS011;11197;53.110;8.468;2023-05-16T00:51:45;13.48;;;1.90;;
22064;SDS011;11197;53.110;8.468;2023-05-16T00:54:11;8.30;;;2.05;;
22064;SDS011;11197;53.110;8.468;2023-05-16T00:56:38;11.63;;;2.22;;
22064;SDS011;11197;53.110;8.468;2023-05-16T00:59:04;12.23;;;2.17;;
22064;SDS011;11197;53.110;8.468;2023-05-16T01:01:31;11.85;;;2.33;;
22064;SDS011;11197;53.110;8.468;2023-05-16T01:03:58;14.07;;;2.10;;
22064;SDS011;11197;53.110;8.468;2023-05-16T01:06:25;13.63;;;2.00;;
22064;SDS011;11197;53.110;8.468;2023-05-16T01:08:51;12.15;;;1.98;;
22064;SDS011;11197;53.110;8.468;2023-05-16T01:22:10;10.63;;;1.85;;
22064;SDS011;11197;53.110;8.468;2023-05-16T01:28:01;9.05;;;1.95;;
22064;SDS011;11197;53.110;8.468;2023-05-16T01:30:31;10.70;;;2.05;;
22064;SDS011;11197;53.110;8.468;2023-05-16T01:33:00;11.48;;;1.95;;
22064;SDS011;11197;53.110;8.468;2023-05-16T01:35:25;16.17;;;1.98;;
22064;SDS011;11197;53.110;8.468;2023-05-16T01:43:24;12.13;;;2.42;;
22064;SDS011;11197;53.110;8.468;2023-05-16T01:46:08;17.52;;;2.78;;
22064;SDS011;11197;53.110;8.468;2023-05-16T01:51:21;13.88;;;2.17;;
22064;SDS011;11197;53.110;8.468;2023-05-16T01:53:50;13.07;;;2.30;;
22064;SDS011;11197;53.110;8.468;2023-05-16T01:56:22;15.80;;;2.45;;
22064;SDS011;11197;53.110;8.468;2023-05-16T01:58:50;18.02;;;2.38;;
22064;SDS011;11197;53.110;8.468;2023-05-16T02:01:18;11.77;;;2.20;;
22064;SDS011;11197;53.110;8.468;2023-05-16T02:03:44;12.07;;;2.10;;
22064;SDS011;11197;53.110;8.468;2023-05-16T02:06:10;13.02;;;2.40;;
22064;SDS011;11197;53.110;8.468;2023-05-16T02:08:36;15.98;;;2.40;;
22064;SDS011;11197;53.110;8.468;2023-05-16T02:11:01;19.38;;;2.60;;
22064;SDS011;11197;53.110;8.468;2023-05-16T02:13:27;15.15;;;2.03;;
22064;SDS011;11197;53.110;8.468;2023-05-16T02:15:53;16.65;;;2.47;;
22064;SDS011;11197;53.110;8.468;2023-05-16T02:18:19;14.20;;;2.70;;
22064;SDS011;11197;53.110;8.468;2023-05-16T02:20:47;14.57;;;2.05;;
22064;SDS011;11197;53.110;8.468;2023-05-16T02:23:14;18.55;;;3.00;;
22064;SDS011;11197;53.110;8.468;2023-05-16T02:25:40;15.07;;;2.40;;
22064;SDS011;11197;53.110;8.468;2023-05-16T02:28:08;15.57;;;2.40;;
22064;SDS011;11197;53.110;8.468;2023-05-16T02:30:34;15.38;;;2.25;;
22064;SDS011;11197;53.110;8.468;2023-05-16T02:33:00;16.80;;;2.47;;
22064;SDS011;11197;53.110;8.468;2023-05-16T02:35:26;15.80;;;2.47;;
22064;SDS011;11197;53.110;8.468;2023-05-16T02:37:51;20.55;;;2.45;;
22064;SDS011;11197;53.110;8.468;2023-05-16T02:40:17;14.55;;;2.25;;
22064;SDS011;11197;53.110;8.468;2023-05-16T02:42:43;16.60;;;2.33;;
22064;SDS011;11197;53.110;8.468;2023-05-16T02:45:09;14.65;;;2.35;;
22064;SDS011;11197;53.110;8.468;2023-05-16T02:47:35;11.30;;;1.80;;
22064;SDS011;11197;53.110;8.468;2023-05-16T02:50:01;12.05;;;1.95;;
22064;SDS011;11197;53.110;8.468;2023-05-16T02:52:27;11.60;;;1.80;;
22064;SDS011;11197;53.110;8.468;2023-05-16T02:54:53;15.18;;;2.05;;
22064;SDS011;11197;53.110;8.468;2023-05-16T02:57:20;11.63;;;1.85;;
22064;SDS011;11197;53.110;8.468;2023-05-16T02:59:45;14.93;;;2.10;;
22064;SDS011;11197;53.110;8.468;2023-05-16T03:02:11;14.93;;;2.25;;
22064;SDS011;11197;53.110;8.468;2023-05-16T03:04:38;12.50;;;2.55;;
22064;SDS011;11197;53.110;8.468;2023-05-16T03:07:04;12.85;;;2.10;;
22064;SDS011;11197;53.110;8.468;2023-05-16T03:09:30;11.82;;;2.08;;
22064;SDS011;11197;53.110;8.468;2023-05-16T03:11:55;11.65;;;1.95;;
22064;SDS011;11197;53.110;8.468;2023-05-16T03:14:21;18.35;;;2.45;;
22064;SDS011;11197;53.110;8.468;2023-05-16T03:16:47;17.00;;;2.20;;
22064;SDS011;11197;53.110;8.468;2023-05-16T03:19:13;12.30;;;2.47;;
22064;SDS011;11197;53.110;8.468;2023-05-16T03:21:39;14.45;;;2.20;;
22064;SDS011;11197;53.110;8.468;2023-05-16T03:24:04;12.93;;;2.10;;
22064;SDS011;11197;53.110;8.468;2023-05-16T03:26:30;15.52;;;2.85;;
22064;SDS011;11197;53.110;8.468;2023-05-16T03:28:56;14.10;;;2.28;;
22064;SDS011;11197;53.110;8.468;2023-05-16T03:31:23;11.50;;;1.83;;
22064;SDS011;11197;53.110;8.468;2023-05-16T03:33:49;13.80;;;2.00;;
22064;SDS011;11197;53.110;8.468;2023-05-16T03:36:15;13.32;;;2.00;;
22064;SDS011;11197;53.110;8.468;2023-05-16T03:38:40;13.55;;;1.98;;
22064;SDS011;11197;53.110;8.468;2023-05-16T03:41:06;15.38;;;2.50;;
22064;SDS011;11197;53.110;8.468;2023-05-16T03:43:32;10.70;;;1.90;;
22064;SDS011;11197;53.110;8.468;2023-05-16T03:45:59;14.27;;;1.80;;
22064;SDS011;11197;53.110;8.468;2023-05-16T03:48:26;12.15;;;1.90;;
22064;SDS011;11197;53.110;8.468;2023-05-16T03:50:51;12.45;;;1.80;;
22064;SDS011;11197;53.110;8.468;2023-05-16T03:53:17;11.65;;;1.65;;
22064;SDS011;11197;53.110;8.468;2023-05-16T03:55:43;15.90;;;2.22;;
22064;SDS011;11197;53.110;8.468;2023-05-16T03:58:09;10.90;;;1.95;;
22064;SDS011;11197;53.110;8.468;2023-05-16T04:00:36;13.75;;;1.98;;
22064;SDS011;11197;53.110;8.468;2023-05-16T04:03:02;12.80;;;1.92;;
22064;SDS011;11197;53.110;8.468;2023-05-16T04:05:28;13.70;;;1.95;;
22064;SDS011;11197;53.110;8.468;2023-05-16T04:07:54;10.73;;;1.70;;
22064;SDS011;11197;53.110;8.468;2023-05-16T04:10:20;13.90;;;2.05;;
22064;SDS011;11197;53.110;8.468;2023-05-16T04:12:46;13.70;;;1.92;;
22064;SDS011;11197;53.110;8.468;2023-05-16T04:15:12;15.10;;;2.10;;
22064;SDS011;11197;53.110;8.468;2023-05-16T04:17:38;12.15;;;2.40;;
22064;SDS011;11197;53.110;8.468;2023-05-16T04:20:04;10.90;;;1.65;;
22064;SDS011;11197;53.110;8.468;2023-05-16T04:22:31;15.90;;;2.25;;
22064;SDS011;11197;53.110;8.468;2023-05-16T04:24:57;11.68;;;1.67;;
22064;SDS011;11197;53.110;8.468;2023-05-16T04:27:23;11.23;;;1.60;;
22064;SDS011;11197;53.110;8.468;2023-05-16T04:29:49;10.77;;;1.77;;
22064;SDS011;11197;53.110;8.468;2023-05-16T04:32:14;13.52;;;2.08;;
22064;SDS011;11197;53.110;8.468;2023-05-16T04:34:41;12.38;;;2.00;;
22064;SDS011;11197;53.110;8.468;2023-05-16T04:37:08;16.23;;;2.42;;
22064;SDS011;11197;53.110;8.468;2023-05-16T04:39:34;11.48;;;1.95;;
22064;SDS011;11197;53.110;8.468;2023-05-16T04:42:00;11.95;;;2.05;;
22064;SDS011;11197;53.110;8.468;2023-05-16T04:44:27;10.45;;;1.50;;
22064;SDS011;11197;53.110;8.468;2023-05-16T04:46:53;15.43;;;1.90;;
22064;SDS011;11197;53.110;8.468;2023-05-16T04:49:19;12.70;;;1.85;;
22064;SDS011;11197;53.110;8.468;2023-05-16T04:51:46;14.65;;;2.25;;
22064;SDS011;11197;53.110;8.468;2023-05-16T04:54:12;14.50;;;2.35;;
22064;SDS011;11197;53.110;8.468;2023-05-16T04:56:39;9.82;;;1.90;;
22064;SDS011;11197;53.110;8.468;2023-05-16T04:59:05;14.13;;;2.17;;
22064;SDS011;11197;53.110;8.468;2023-05-16T05:01:31;14.00;;;2.72;;
22064;SDS011;11197;53.110;8.468;2023-05-16T05:03:57;12.82;;;1.90;;
22064;SDS011;11197;53.110;8.468;2023-05-16T05:06:23;11.95;;;2.05;;
22064;SDS011;11197;53.110;8.468;2023-05-16T05:08:49;13.48;;;2.38;;
22064;SDS011;11197;53.110;8.468;2023-05-16T05:11:14;13.45;;;2.20;;
22064;SDS011;11197;53.110;8.468;2023-05-16T05:13:40;9.13;;;1.73;;
22064;SDS011;11197;53.110;8.468;2023-05-16T05:16:06;10.02;;;2.13;;
22064;SDS011;11197;53.110;8.468;2023-05-16T05:18:32;14.05;;;1.73;;
22064;SDS011;11197;53.110;8.468;2023-05-16T05:20:58;12.43;;;1.90;;
22064;SDS011;11197;53.110;8.468;2023-05-16T05:23:25;13.52;;;1.98;;
22064;SDS011;11197;53.110;8.468;2023-05-16T05:25:51;14.65;;;2.33;;
22064;SDS011;11197;53.110;8.468;2023-05-16T05:28:20;13.32;;;2.22;;
22064;SDS011;11197;53.110;8.468;2023-05-16T05:30:46;16.88;;;2.20;;
22064;SDS011;11197;53.110;8.468;2023-05-16T05:33:13;13.25;;;2.00;;
22064;SDS011;11197;53.110;8.468;2023-05-16T05:35:49;12.45;;;1.65;;
22064;SDS011;11197;53.110;8.468;2023-05-16T05:38:18;10.98;;;2.03;;
22064;SDS011;11197;53.110;8.468;2023-05-16T05:40:44;14.30;;;2.25;;
22064;SDS011;11197;53.110;8.468;2023-05-16T05:43:10;12.50;;;2.00;;
22064;SDS011;11197;53.110;8.468;2023-05-16T05:45:36;13.77;;;1.90;;
22064;SDS011;11197;53.110;8.468;2023-05-16T05:48:02;11.63;;;1.85;;
22064;SDS011;11197;53.110;8.468;2023-05-16T05:50:28;13.30;;;2.10;;
22064;SDS011;11197;53.110;8.468;2023-05-16T05:52:54;9.43;;;1.42;;
22064;SDS011;11197;53.110;8.468;2023-05-16T05:55:20;12.77;;;1.85;;
22064;SDS011;11197;53.110;8.468;2023-05-16T05:57:46;17.75;;;2.50;;
22064;SDS011;11197;53.110;8.468;2023-05-16T06:00:11;13.88;;;1.95;;
22064;SDS011;11197;53.110;8.468;2023-05-16T06:02:38;16.98;;;2.10;;
22064;SDS011;11197;53.110;8.468;2023-05-16T06:05:04;12.35;;;2.10;;
22064;SDS011;11197;53.110;8.468;2023-05-16T06:07:30;11.25;;;1.80;;
22064;SDS011;11197;53.110;8.468;2023-05-16T06:10:00;17.33;;;2.17;;
22064;SDS011;11197;53.110;8.468;2023-05-16T06:12:28;12.63;;;1.70;;
22064;SDS011;11197;53.110;8.468;2023-05-16T06:14:54;7.63;;;1.70;;
22064;SDS011;11197;53.110;8.468;2023-05-16T06:17:20;11.80;;;2.08;;
22064;SDS011;11197;53.110;8.468;2023-05-16T06:19:46;9.90;;;1.60;;
22064;SDS011;11197;53.110;8.468;2023-05-16T06:22:12;11.52;;;1.70;;
22064;SDS011;11197;53.110;8.468;2023-05-16T06:24:39;12.98;;;1.77;;
22064;SDS011;11197;53.110;8.468;2023-05-16T06:27:05;14.60;;;2.17;;
22064;SDS011;11197;53.110;8.468;2023-05-16T06:29:31;9.02;;;1.80;;
22064;SDS011;11197;53.110;8.468;2023-05-16T06:31:57;13.40;;;1.90;;
22064;SDS011;11197;53.110;8.468;2023-05-16T06:34:22;10.32;;;1.77;;
22064;SDS011;11197;53.110;8.468;2023-05-16T06:36:52;12.05;;;1.98;;
22064;SDS011;11197;53.110;8.468;2023-05-16T06:39:19;8.82;;;1.60;;
22064;SDS011;11197;53.110;8.468;2023-05-16T06:41:48;12.35;;;1.65;;
22064;SDS011;11197;53.110;8.468;2023-05-16T06:44:14;13.32;;;1.65;;
22064;SDS011;11197;53.110;8.468;2023-05-16T06:46:40;10.43;;;1.83;;
22064;SDS011;11197;53.110;8.468;2023-05-16T06:49:06;13.60;;;2.13;;
22064;SDS011;11197;53.110;8.468;2023-05-16T06:51:32;13.20;;;1.95;;
22064;SDS011;11197;53.110;8.468;2023-05-16T06:53:58;9.82;;;1.50;;
22064;SDS011;11197;53.110;8.468;2023-05-16T06:56:24;12.90;;;1.70;;
22064;SDS011;11197;53.110;8.468;2023-05-16T06:58:50;10.48;;;1.90;;
22064;SDS011;11197;53.110;8.468;2023-05-16T07:01:15;12.73;;;1.40;;
22064;SDS011;11197;53.110;8.468;2023-05-16T07:03:41;13.15;;;1.85;;
22064;SDS011;11197;53.110;8.468;2023-05-16T07:06:07;11.20;;;1.77;;
22064;SDS011;11197;53.110;8.468;2023-05-16T07:08:33;11.77;;;1.50;;
22064;SDS011;11197;53.110;8.468;2023-05-16T07:11:01;12.57;;;1.80;;
22064;SDS011;11197;53.110;8.468;2023-05-16T07:13:26;10.73;;;1.52;;
22064;SDS011;11197;53.110;8.468;2023-05-16T07:15:52;8.52;;;1.60;;
22064;SDS011;11197;53.110;8.468;2023-05-16T07:18:18;7.75;;;1.58;;
22064;SDS011;11197;53.110;8.468;2023-05-16T07:20:44;9.40;;;1.30;;
22064;SDS011;11197;53.110;8.468;2023-05-16T07:23:10;8.43;;;1.60;;
22064;SDS011;11197;53.110;8.468;2023-05-16T07:25:36;8.32;;;1.67;;
22064;SDS011;11197;53.110;8.468;2023-05-16T07:28:02;8.75;;;1.40;;
22064;SDS011;11197;53.110;8.468;2023-05-16T07:30:28;7.70;;;1.60;;
22064;SDS011;11197;53.110;8.468;2023-05-16T07:32:54;9.75;;;1.70;;
22064;SDS011;11197;53.110;8.468;2023-05-16T07:35:20;8.10;;;1.15;;
22064;SDS011;11197;53.110;8.468;2023-05-16T07:37:49;8.63;;;1.55;;
22064;SDS011;11197;53.110;8.468;2023-05-16T07:40:15;9.55;;;1.48;;
22064;SDS011;11197;53.110;8.468;2023-05-16T07:42:42;8.38;;;1.40;;
22064;SDS011;11197;53.110;8.468;2023-05-16T07:45:08;9.43;;;1.55;;
22064;SDS011;11197;53.110;8.468;2023-05-16T07:47:34;7.45;;;1.35;;
22064;SDS011;11197;53.110;8.468;2023-05-16T07:50:00;9.40;;;1.15;;
22064;SDS011;11197;53.110;8.468;2023-05-16T07:52:26;7.03;;;1.10;;
22064;SDS011;11197;53.110;8.468;2023-05-16T07:54:52;11.45;;;1.75;;
22064;SDS011;11197;53.110;8.468;2023-05-16T07:57:18;8.43;;;1.40;;
22064;SDS011;11197;53.110;8.468;2023-05-16T07:59:44;5.45;;;1.02;;
22064;SDS011;11197;53.110;8.468;2023-05-16T08:02:10;8.40;;;1.33;;
22064;SDS011;11197;53.110;8.468;2023-05-16T08:04:36;10.70;;;1.50;;
22064;SDS011;11197;53.110;8.468;2023-05-16T08:07:02;9.52;;;1.80;;
22064;SDS011;11197;53.110;8.468;2023-05-16T08:09:28;10.25;;;1.52;;
22064;SDS011;11197;53.110;8.468;2023-05-16T08:11:54;7.82;;;1.15;;
22064;SDS011;11197;53.110;8.468;2023-05-16T08:14:20;8.60;;;1.42;;
22064;SDS011;11197;53.110;8.468;2023-05-16T08:16:46;7.90;;;1.15;;
22064;SDS011;11197;53.110;8.468;2023-05-16T08:19:12;9.35;;;1.50;;
22064;SDS011;11197;53.110;8.468;2023-05-16T08:21:38;8.20;;;1.17;;
22064;SDS011;11197;53.110;8.468;2023-05-16T08:24:05;7.20;;;1.30;;
22064;SDS011;11197;53.110;8.468;2023-05-16T08:26:31;6.20;;;1.20;;
22064;SDS011;11197;53.110;8.468;2023-05-16T08:28:57;8.98;;;1.52;;
22064;SDS011;11197;53.110;8.468;2023-05-16T08:31:23;9.60;;;1.52;;
22064;SDS011;11197;53.110;8.468;2023-05-16T08:33:48;8.77;;;1.20;;
22064;SDS011;11197;53.110;8.468;2023-05-16T08:36:14;10.95;;;1.55;;
22064;SDS011;11197;53.110;8.468;2023-05-16T08:38:42;8.55;;;1.20;;
22064;SDS011;11197;53.110;8.468;2023-05-16T08:41:08;8.65;;;1.20;;
22064;SDS011;11197;53.110;8.468;2023-05-16T08:43:34;7.25;;;1.48;;
22064;SDS011;11197;53.110;8.468;2023-05-16T08:46:00;7.80;;;1.20;;
22064;SDS011;11197;53.110;8.468;2023-05-16T08:48:26;8.00;;;1.38;;
22064;SDS011;11197;53.110;8.468;2023-05-16T08:50:53;6.15;;;1.00;;
22064;SDS011;11197;53.110;8.468;2023-05-16T08:53:25;7.45;;;1.13;;
22064;SDS011;11197;53.110;8.468;2023-05-16T08:55:56;6.57;;;1.38;;
22064;SDS011;11197;53.110;8.468;2023-05-16T08:58:23;7.05;;;1.23;;
22064;SDS011;11197;53.110;8.468;2023-05-16T09:00:49;7.45;;;1.30;;
22064;SDS011;11197;53.110;8.468;2023-05-16T09:03:16;5.55;;;0.98;;
22064;SDS011;11197;53.110;8.468;2023-05-16T09:05:47;6.10;;;1.15;;
22064;SDS011;11197;53.110;8.468;2023-05-16T09:08:14;7.40;;;1.17;;
22064;SDS011;11197;53.110;8.468;2023-05-16T09:10:40;6.88;;;1.27;;
22064;SDS011;11197;53.110;8.468;2023-05-16T09:13:06;7.30;;;1.13;;
22064;SDS011;11197;53.110;8.468;2023-05-16T09:15:32;8.50;;;1.30;;
22064;SDS011;11197;53.110;8.468;2023-05-16T09:18:01;8.90;;;1.40;;
22064;SDS011;11197;53.110;8.468;2023-05-16T09:20:28;7.05;;;1.55;;
22064;SDS011;11197;53.110;8.468;2023-05-16T09:22:56;9.98;;;1.50;;
22064;SDS011;11197;53.110;8.468;2023-05-16T09:25:24;6.03;;;1.20;;
22064;SDS011;11197;53.110;8.468;2023-05-16T09:27:54;7.30;;;1.20;;
22064;SDS011;11197;53.110;8.468;2023-05-16T09:30:28;10.32;;;1.38;;
22064;SDS011;11197;53.110;8.468;2023-05-16T09:32:56;5.80;;;1.10;;
22064;SDS011;11197;53.110;8.468;2023-05-16T09:35:22;6.70;;;1.20;;
22064;SDS011;11197;53.110;8.468;2023-05-16T09:37:49;6.07;;;1.30;;
22064;SDS011;11197;53.110;8.468;2023-05-16T09:40:23;4.53;;;1.15;;
22064;SDS011;11197;53.110;8.468;2023-05-16T09:43:05;8.15;;;1.45;;
22064;SDS011;11197;53.110;8.468;2023-05-16T09:45:33;6.90;;;1.40;;
22064;SDS011;11197;53.110;8.468;2023-05-16T09:48:03;10.27;;;1.85;;
22064;SDS011;11197;53.110;8.468;2023-05-16T09:50:31;8.73;;;1.35;;
22064;SDS011;11197;53.110;8.468;2023-05-16T09:52:59;6.65;;;1.15;;
22064;SDS011;11197;53.110;8.468;2023-05-16T09:55:25;8.95;;;1.20;;
22064;SDS011;11197;53.110;8.468;2023-05-16T09:57:51;6.43;;;1.30;;
22064;SDS011;11197;53.110;8.468;2023-05-16T10:00:17;9.70;;;1.55;;
22064;SDS011;11197;53.110;8.468;2023-05-16T10:02:43;7.32;;;1.30;;
22064;SDS011;11197;53.110;8.468;2023-05-16T10:05:10;4.90;;;1.00;;
22064;SDS011;11197;53.110;8.468;2023-05-16T10:07:36;6.38;;;1.25;;
22064;SDS011;11197;53.110;8.468;2023-05-16T10:10:07;7.07;;;1.33;;
22064;SDS011;11197;53.110;8.468;2023-05-16T10:12:35;6.32;;;1.45;;
22064;SDS011;11197;53.110;8.468;2023-05-16T10:15:03;5.18;;;0.98;;
22064;SDS011;11197;53.110;8.468;2023-05-16T10:17:31;6.55;;;1.02;;
22064;SDS011;11197;53.110;8.468;2023-05-16T10:20:00;8.55;;;1.45;;
22064;SDS011;11197;53.110;8.468;2023-05-16T10:22:31;6.97;;;1.33;;
22064;SDS011;11197;53.110;8.468;2023-05-16T10:25:07;6.82;;;1.20;;
22064;SDS011;11197;53.110;8.468;2023-05-16T10:27:35;4.25;;;0.93;;
22064;SDS011;11197;53.110;8.468;2023-05-16T10:30:01;3.97;;;0.95;;
22064;SDS011;11197;53.110;8.468;2023-05-16T10:32:29;6.78;;;1.27;;
22064;SDS011;11197;53.110;8.468;2023-05-16T10:34:56;8.68;;;1.35;;
22064;SDS011;11197;53.110;8.468;2023-05-16T10:37:25;8.45;;;1.17;;
22064;SDS011;11197;53.110;8.468;2023-05-16T10:39:52;6.40;;;1.02;;
22064;SDS011;11197;53.110;8.468;2023-05-16T10:42:18;2.85;;;0.90;;
22064;SDS011;11197;53.110;8.468;2023-05-16T10:44:45;4.53;;;0.90;;
22064;SDS011;11197;53.110;8.468;2023-05-16T10:47:11;7.28;;;1.17;;
22064;SDS011;11197;53.110;8.468;2023-05-16T10:49:39;5.45;;;1.00;;
22064;SDS011;11197;53.110;8.468;2023-05-16T10:54:35;8.65;;;1.23;;
22064;SDS011;11197;53.110;8.468;2023-05-16T10:59:43;6.00;;;1.10;;
22064;SDS011;11197;53.110;8.468;2023-05-16T11:02:27;6.47;;;1.33;;
22064;SDS011;11197;53.110;8.468;2023-05-16T11:04:57;7.03;;;1.40;;
22064;SDS011;11197;53.110;8.468;2023-05-16T11:07:25;7.07;;;1.20;;
22064;SDS011;11197;53.110;8.468;2023-05-16T11:10:05;7.22;;;1.30;;
22064;SDS011;11197;53.110;8.468;2023-05-16T11:12:37;6.03;;;1.17;;
22064;SDS011;11197;53.110;8.468;2023-05-16T11:15:16;6.95;;;1.25;;
22064;SDS011;11197;53.110;8.468;2023-05-16T11:17:43;6.22;;;1.27;;
22064;SDS011;11197;53.110;8.468;2023-05-16T11:20:16;8.27;;;1.50;;
22064;SDS011;11197;53.110;8.468;2023-05-16T11:25:41;7.43;;;1.55;;
22064;SDS011;11197;53.110;8.468;2023-05-16T11:28:10;6.60;;;1.42;;
22064;SDS011;11197;53.110;8.468;2023-05-16T11:30:59;9.63;;;1.50;;
22064;SDS011;11197;53.110;8.468;2023-05-16T11:33:24;6.93;;;1.30;;
22064;SDS011;11197;53.110;8.468;2023-05-16T11:36:00;8.73;;;1.50;;
22064;SDS011;11197;53.110;8.468;2023-05-16T11:38:29;7.53;;;1.45;;
22064;SDS011;11197;53.110;8.468;2023-05-16T11:41:06;7.10;;;1.17;;
22064;SDS011;11197;53.110;8.468;2023-05-16T11:43:36;7.20;;;1.23;;
22064;SDS011;11197;53.110;8.468;2023-05-16T11:46:09;7.18;;;1.50;;
22064;SDS011;11197;53.110;8.468;2023-05-16T11:48:36;9.85;;;1.55;;
22064;SDS011;11197;53.110;8.468;2023-05-16T11:51:02;8.30;;;1.50;;
22064;SDS011;11197;53.110;8.468;2023-05-16T11:53:28;4.63;;;1.17;;
22064;SDS011;11197;53.110;8.468;2023-05-16T11:55:54;7.93;;;1.33;;
22064;SDS011;11197;53.110;8.468;2023-05-16T11:58:20;4.53;;;1.25;;
22064;SDS011;11197;53.110;8.468;2023-05-16T12:00:48;6.53;;;1.45;;
22064;SDS011;11197;53.110;8.468;2023-05-16T12:03:16;6.55;;;1.25;;
22064;SDS011;11197;53.110;8.468;2023-05-16T12:05:53;5.03;;;1.30;;
22064;SDS011;11197;53.110;8.468;2023-05-16T12:08:20;6.82;;;1.42;;
22064;SDS011;11197;53.110;8.468;2023-05-16T12:10:50;7.30;;;1.10;;
22064;SDS011;11197;53.110;8.468;2023-05-16T12:13:21;6.95;;;1.50;;
22064;SDS011;11197;53.110;8.468;2023-05-16T12:15:48;7.80;;;1.60;;
22064;SDS011;11197;53.110;8.468;2023-05-16T12:18:17;5.78;;;1.20;;
22064;SDS011;11197;53.110;8.468;2023-05-16T12:20:43;8.32;;;1.42;;
22064;SDS011;11197;53.110;8.468;2023-05-16T12:23:12;6.70;;;1.30;;
22064;SDS011;11197;53.110;8.468;2023-05-16T12:25:43;6.32;;;1.17;;
22064;SDS011;11197;53.110;8.468;2023-05-16T12:28:11;7.25;;;1.30;;
22064;SDS011;11197;53.110;8.468;2023-05-16T12:30:42;7.07;;;1.20;;
22064;SDS011;11197;53.110;8.468;2023-05-16T12:35:42;9.95;;;1.35;;
22064;SDS011;11197;53.110;8.468;2023-05-16T12:38:11;7.18;;;1.17;;
22064;SDS011;11197;53.110;8.468;2023-05-16T12:40:38;6.93;;;1.70;;
22064;SDS011;11197;53.110;8.468;2023-05-16T12:43:16;8.32;;;1.58;;
22064;SDS011;11197;53.110;8.468;2023-05-16T12:45:51;10.63;;;1.45;;
22064;SDS011;11197;53.110;8.468;2023-05-16T12:48:19;9.30;;;1.70;;
22064;SDS011;11197;53.110;8.468;2023-05-16T12:50:45;6.07;;;1.30;;
22064;SDS011;11197;53.110;8.468;2023-05-16T12:53:13;7.00;;;1.45;;
22064;SDS011;11197;53.110;8.468;2023-05-16T12:55:40;7.70;;;1.38;;
22064;SDS011;11197;53.110;8.468;2023-05-16T12:58:07;8.27;;;1.70;;
22064;SDS011;11197;53.110;8.468;2023-05-16T13:00:34;13.00;;;1.90;;
22064;SDS011;11197;53.110;8.468;2023-05-16T13:03:01;10.43;;;1.50;;
22064;SDS011;11197;53.110;8.468;2023-05-16T13:05:28;9.30;;;1.48;;
22064;SDS011;11197;53.110;8.468;2023-05-16T13:07:54;9.07;;;1.40;;
22064;SDS011;11197;53.110;8.468;2023-05-16T13:10:20;8.55;;;1.15;;
22064;SDS011;11197;53.110;8.468;2023-05-16T13:12:46;8.15;;;1.20;;
22064;SDS011;11197;53.110;8.468;2023-05-16T13:15:12;7.60;;;1.20;;
22064;SDS011;11197;53.110;8.468;2023-05-16T13:17:39;7.05;;;1.30;;
22064;SDS011;11197;53.110;8.468;2023-05-16T13:20:06;8.20;;;1.33;;
22064;SDS011;11197;53.110;8.468;2023-05-16T13:22:33;7.35;;;1.13;;
22064;SDS011;11197;53.110;8.468;2023-05-16T13:25:02;5.55;;;1.10;;
22064;SDS011;11197;53.110;8.468;2023-05-16T13:27:28;7.70;;;1.15;;
22064;SDS011;11197;53.110;8.468;2023-05-16T13:29:55;7.28;;;1.15;;
22064;SDS011;11197;53.110;8.468;2023-05-16T13:32:21;7.93;;;1.20;;
22064;SDS011;11197;53.110;8.468;2023-05-16T13:34:47;9.35;;;1.35;;
22064;SDS011;11197;53.110;8.468;2023-05-16T13:37:13;4.28;;;0.98;;
22064;SDS011;11197;53.110;8.468;2023-05-16T13:39:38;7.60;;;1.48;;
22064;SDS011;11197;53.110;8.468;2023-05-16T13:42:05;6.22;;;1.05;;
22064;SDS011;11197;53.110;8.468;2023-05-16T13:44:31;3.83;;;0.90;;
22064;SDS011;11197;53.110;8.468;2023-05-16T13:46:57;5.55;;;0.98;;
22064;SDS011;11197;53.110;8.468;2023-05-16T13:49:23;6.40;;;1.00;;
22064;SDS011;11197;53.110;8.468;2023-05-16T13:51:49;5.35;;;1.10;;
22064;SDS011;11197;53.110;8.468;2023-05-16T13:54:16;6.18;;;1.10;;
22064;SDS011;11197;53.110;8.468;2023-05-16T13:56:43;5.60;;;0.93;;
22064;SDS011;11197;53.110;8.468;2023-05-16T13:59:09;5.88;;;0.98;;
22064;SDS011;11197;53.110;8.468;2023-05-16T14:01:35;6.70;;;1.10;;
22064;SDS011;11197;53.110;8.468;2023-05-16T14:04:01;7.63;;;1.10;;
22064;SDS011;11197;53.110;8.468;2023-05-16T14:06:28;4.72;;;0.93;;
22064;SDS011;11197;53.110;8.468;2023-05-16T14:08:54;8.48;;;1.38;;
22064;SDS011;11197;53.110;8.468;2023-05-16T14:11:19;8.57;;;1.25;;
22064;SDS011;11197;53.110;8.468;2023-05-16T14:16:16;7.93;;;1.33;;
22064;SDS011;11197;53.110;8.468;2023-05-16T14:18:43;9.15;;;1.35;;
22064;SDS011;11197;53.110;8.468;2023-05-16T14:21:09;10.20;;;1.63;;
22064;SDS011;11197;53.110;8.468;2023-05-16T14:23:35;9.90;;;1.70;;
22064;SDS011;11197;53.110;8.468;2023-05-16T14:26:01;7.88;;;1.65;;
22064;SDS011;11197;53.110;8.468;2023-05-16T14:28:27;8.43;;;1.30;;
22064;SDS011;11197;53.110;8.468;2023-05-16T14:30:53;8.25;;;1.52;;
22064;SDS011;11197;53.110;8.468;2023-05-16T14:33:19;9.95;;;1.85;;
22064;SDS011;11197;53.110;8.468;2023-05-16T14:35:47;6.60;;;1.70;;
22064;SDS011;11197;53.110;8.468;2023-05-16T14:38:15;10.40;;;1.80;;
22064;SDS011;11197;53.110;8.468;2023-05-16T14:40:41;9.13;;;1.40;;
22064;SDS011;11197;53.110;8.468;2023-05-16T14:43:07;8.57;;;1.88;;
22064;SDS011;11197;53.110;8.468;2023-05-16T14:45:33;7.72;;;1.60;;
22064;SDS011;11197;53.110;8.468;2023-05-16T14:47:59;7.72;;;1.90;;
22064;SDS011;11197;53.110;8.468;2023-05-16T14:50:26;7.57;;;1.63;;
22064;SDS011;11197;53.110;8.468;2023-05-16T14:52:52;6.80;;;1.50;;
22064;SDS011;11197;53.110;8.468;2023-05-16T14:55:19;6.85;;;1.63;;
22064;SDS011;11197;53.110;8.468;2023-05-16T14:57:45;12.73;;;1.80;;
22064;SDS011;11197;53.110;8.468;2023-05-16T15:00:13;5.95;;;1.63;;
22064;SDS011;11197;53.110;8.468;2023-05-16T15:02:41;8.13;;;1.70;;
22064;SDS011;11197;53.110;8.468;2023-05-16T15:05:07;6.65;;;1.95;;
22064;SDS011;11197;53.110;8.468;2023-05-16T15:07:33;11.43;;;2.33;;
22064;SDS011;11197;53.110;8.468;2023-05-16T15:09:59;7.18;;;1.70;;
22064;SDS011;11197;53.110;8.468;2023-05-16T15:12:26;9.63;;;2.00;;
22064;SDS011;11197;53.110;8.468;2023-05-16T15:14:52;12.32;;;2.10;;